Airfield :
LOGIN :

Register | Disclaimer

   EN    FR    IT 

 










Legend :    VFR   Marginal VFR   IFR   Intensive IFR   Very Intensive IFR
Visi :
Ceiling :
>= 8 km
>= 3000ft
5 to 8 km
1000 to 3000 ft
1500m to 5 km
500 to 1000 ft
800 to 1500m
200 to 500 ft
< 800m
< 200 ft
Symbols :   Thunderstorms  Fog  Heavy snow  Heavy precipitations  Wind > 20 kt
SIGMETs :     Misc.  Thunderstorms  Icing  Turbulence  Mountain Waves  Volcanic Ashes






- Airport Elevation : 1367 ft
- IATA code : FDH


EDNY - Friedrichshafen

CURRENT METAR :
  • 121720Z VRB02KT 9999 SCT046 BKN056 11/08 Q1012

EXPIRED METARs :
  • 121650Z VRB02KT 9999 BKN045 11/08 Q1012
  • 121620Z VRB03KT 9999 BKN050 11/08 Q1012
  • 121550Z 06003KT 9999 -RA FEW015 OVC054 11/08 Q1012
  • 121520Z VRB03KT 9999 FEW013 OVC049 11/08 Q1012
  • 121450Z VRB03KT 9999 FEW013 BKN053 OVC060 11/08 Q1012

TAF TAF EDNY
Valid from the 12 at 12:00 until the 13 at 12:00 UTC


121100Z 1212/1312 23007KT 9999 BKN012 OVC020
BECMG 1212/1215 BKN020
BECMG 1215/1218 VRB02KT
PROB30
TEMPO 1303/1307 4000 BR BKN012
BECMG 1309/1312 24007KT
TEMPO 1309/1312 26015KT SHRA BKN015TCU



MET'MAP, your aeronautical weather chart ! - Copyright ORBIFLY December 2007 - Disclaimer

ORBIFLY MET'MAP TEAM :

Programming & Development : Alexandra Zaïnal
Concept & original design : Baudouin d'Aumeries
Assistance for programming : Marc-Olivier Méhu
Technical & hardware support : Manuel Goepfert

Contact : metmap@orbifly.com




SOURCES & CREDITS :

   NOAA